Tuesday, January 23, 2018, 6:53 PM EST
Back to Local

KPBG, Plattsburgh International Airport

Location: Plattsburgh, NY, United States Lat: 44.65
Local Time: 6:53 PM EST (23:53 GMT) Lon: -73.467
Time Zone: US/Eastern Elev: 239 ft

Show me the last for .
Show Decoded

2018-01-23 18:05 METAR KPBG 232305Z AUTO 29005KT 10SM -RA SCT002 BKN035 OVC100 04/03 A2946 RMK
                 AO2 RAB05 P0000 T00390028 =
2018-01-23 17:58 METAR KPBG 232258Z AUTO 26009KT 3SM BR BKN002 BKN037 OVC100 03/02 A2944 RMK AO2
                 PRESRR T00280022 =
2018-01-23 17:53 METAR KPBG 232253Z AUTO 29005KT 1SM BR BKN002 OVC100 02/01 A2943 RMK AO2 SLP968
                 T00220011 =
2018-01-23 17:16 METAR KPBG 232216Z AUTO 00000KT 1/4SM FG VV002 02/02 A2941 RMK AO2 T00220017 =
2018-01-23 17:08 METAR KPBG 232208Z AUTO 02003KT 3/4SM BR VV003 02/01 A2941 RMK AO2 T00170011 =
2018-01-23 17:06 METAR KPBG 232206Z AUTO 00000KT 1 1/2SM BR FEW120 02/02 A2942 RMK AO2 T00220017
                 =
2018-01-23 16:53 METAR KPBG 232153Z AUTO 30003KT 6SM BR FEW120 03/03 A2942 RMK AO2 SLP964
                 T00330028 =
2018-01-23 15:53 METAR KPBG 232053Z AUTO 15003KT 10SM CLR 05/04 A2944 RMK AO2 SLP972 60000
                 T00500039 56015 =
2018-01-23 15:19 METAR KPBG 232019Z AUTO 15009KT 3SM BR SCT080 BKN095 OVC120 04/03 A2943 RMK AO2
                 T00390033 =
2018-01-23 15:09 METAR KPBG 232009Z AUTO 15004KT 1 3/4SM BR OVC090 04/03 A2943 RMK AO2 VIS 3/4V5
                 T00390033 =
2018-01-23 14:53 METAR KPBG 231953Z AUTO 12004KT 4SM BR OVC095 04/03 A2945 RMK AO2 SLP975
                 T00440033 =
2018-01-23 13:53 METAR KPBG 231853Z AUTO 17003KT 10SM BKN075 OVC090 04/04 A2947 RMK AO2 RAE52
                 SLP982 P0000 T00440039 =
2018-01-23 12:53 METAR KPBG 231753Z AUTO 15009KT 10SM -RA FEW005 BKN070 OVC090 04/04 A2949 RMK
                 AO2 SLP987 P0003 60023 T00440039 10044 20028 58046 =
2018-01-23 12:28 METAR KPBG 231728Z AUTO 14015KT 9SM -RA FEW005 OVC065 04/03 A2950 RMK AO2 P0003
                 T00390033 =
2018-01-23 11:53 METAR KPBG 231653Z AUTO 15009KT 9SM -RA OVC070 04/03 A2953 RMK AO2 SLP001 P0004
                 T00390028 =
2018-01-23 10:53 METAR KPBG 231553Z AUTO 17005KT 6SM -RA BR OVC060 04/03 A2959 RMK AO2 SLP022
                 P0009 T00390033 =
2018-01-23 09:53 METAR KPBG 231453Z AUTO 20003KT 7SM -RA FEW039 OVC060 04/03 A2962 RMK AO2
                 RAB1359 SLP034 P0007 60007 T00390028 56026 =
2018-01-23 08:53 METAR KPBG 231353Z AUTO 14015KT 10SM SCT022 BKN041 OVC080 03/01 A2964 RMK AO2
                 SLP040 T00330011 =
2018-01-23 07:53 METAR KPBG 231253Z AUTO 15015KT 10SM OVC017 03/01 A2967 RMK AO2 PK WND
                 17026/1156 SLP049 T00330011 =
2018-01-23 06:53 METAR KPBG 231153Z AUTO 16011G20KT 10SM BKN018 OVC085 04/01 A2970 RMK AO2 PK WND
                 15034/1059 SLP061 60000 70020 T00390011 10044 20028 56025 =
2018-01-23 06:51 METAR KPBG 231151Z AUTO 15015G20KT 10SM BKN018 BKN085 04/01 A2971 RMK AO2 PK WND
                 15034/1059 =
2018-01-23 05:53 METAR KPBG 231053Z AUTO 16025G31KT 10SM FEW019 SCT090 OVC110 04/01 A2972 RMK AO2
                 PK WND 16031/1053 RAE29 PRESFR SLP067 P0000 T00390006 =
2018-01-23 04:53 METAR KPBG 230953Z AUTO 16017G27KT 10SM -RA OVC090 04/01 A2978 RMK AO2 PK WND
                 16027/0947 RAB37 SLP087 P0000 T00390006 =
2018-01-23 03:53 METAR KPBG 230853Z AUTO 17010G20KT 10SM OVC100 04/01 A2982 RMK AO2 SLP100
                 T00440006 57031 =
2018-01-23 02:53 METAR KPBG 230753Z AUTO 17013G18KT 10SM OVC080 04/01 A2985 RMK AO2 SLP111
                 T00390006 =
2018-01-23 02:09 METAR KPBG 230709Z AUTO 17012G21KT 10SM SCT022 OVC080 03/00 A2988 RMK AO2
                 T00330000 =
2018-01-23 01:53 METAR KPBG 230653Z AUTO 16012G19KT 10SM BKN021 OVC080 03/00 A2988 RMK AO2 SLP121
                 T00330000 =
2018-01-23 00:53 METAR KPBG 230553Z AUTO 16014G22KT 10SM BKN022 BKN031 OVC110 03/M01 A2991 RMK
                 AO2 RAE0457 SLP132 P0000 60003 I6004 T00281006 10028 21044 58023 =
2018-01-22 23:53 METAR KPBG 230453Z AUTO 15012KT 10SM -RA OVC023 01/M01 A2995 RMK AO2
                 RAB47FZRAE28 SLP145 P0000 I1002 T00111006 400111067 =
2018-01-22 23:34 METAR KPBG 230434Z AUTO 15015KT 10SM OVC023 01/M01 A2995 RMK AO2 FZRAE28 P0000
                 I1001 T00061011 =
2018-01-22 22:53 METAR KPBG 230353Z AUTO 15016KT 10SM -FZRA OVC024 M01/M02 A2997 RMK AO2
                 UPE0259B38E43FZRAB43 SLP153 P0000 I1000 T10061017 =
2018-01-22 22:49 METAR KPBG 230349Z AUTO 16014KT 9SM -FZRA OVC024 M01/M02 A2998 RMK AO2
                 UPE0259B38E43FZRAB43 P0000 I1000 =
2018-01-22 22:02 METAR KPBG 230302Z AUTO 16013KT 10SM SCT006 BKN027 OVC036 M02/M03 A3001 RMK AO2
                 UPE0259 P0000 T10171028 =
2018-01-22 21:53 METAR KPBG 230253Z AUTO 15015KT 9SM UP BKN006 BKN029 OVC036 M02/M03 A3001 RMK
                 AO2 UPB52 SLP167 P0000 60003 I1000 I3002 T10171028 58038 =
2018-01-22 20:53 METAR KPBG 230153Z AUTO 13007KT 10SM OVC006 M03/M04 A3006 RMK AO2
                 UPB34E41FZRAE0056B41E45 SLP184 P0000 I1000 T10331044 =
2018-01-22 20:02 METAR KPBG 230102Z AUTO 13005KT 10SM BKN008 OVC021 M04/M06 A3009 RMK AO2
                 FZRAE0056 P0000 I1000 T10391056 =
2018-01-22 19:53 METAR KPBG 230053Z AUTO 11004KT 10SM -FZRA BKN008 OVC023 M04/M06 A3010 RMK AO2
                 SLP197 P0003 I1002 T10441056 =
2018-01-22 19:25 METAR KPBG 230025Z AUTO 00000KT 6SM -FZRA BR OVC009 M04/M06 A3012 RMK AO2 CIG
                 008V012 P0002 I1002 T10391056 =
2018-01-22 19:02 METAR KPBG 230002Z AUTO 00000KT 5SM -FZRA BR OVC010 M04/M06 A3012 RMK AO2 P0001
                 I1000 T10441061 =

Support USWX by starting your Amazon purchase here.